createdAt,value
2018-07-05T00:02:11.550Z,3.00
2018-07-05T00:04:51.329Z,2.33
2018-07-05T00:07:31.098Z,2.80
2018-07-05T00:10:11.160Z,2.93
2018-07-05T00:12:50.799Z,2.77
2018-07-05T00:15:30.512Z,2.80
2018-07-05T00:18:10.189Z,2.40
2018-07-05T00:20:50.052Z,2.93
2018-07-05T00:23:29.781Z,3.13
2018-07-05T00:26:09.546Z,2.73
2018-07-05T00:28:49.309Z,3.10
2018-07-05T00:31:29.023Z,3.10
2018-07-05T00:34:08.802Z,3.23
2018-07-05T00:36:48.686Z,3.33
2018-07-05T00:39:29.334Z,3.23
2018-07-05T00:42:08.990Z,3.30
2018-07-05T00:44:48.647Z,3.03
2018-07-05T00:47:28.473Z,3.13
2018-07-05T00:50:08.284Z,3.20
2018-07-05T00:52:48.124Z,3.00
2018-07-05T00:55:27.928Z,2.90
2018-07-05T00:58:07.794Z,3.00
2018-07-05T01:00:48.667Z,3.43
2018-07-05T01:03:28.903Z,3.50
2018-07-05T01:06:08.755Z,2.90
2018-07-05T01:08:48.501Z,3.33
2018-07-05T01:11:28.167Z,3.43
2018-07-05T01:14:07.911Z,3.50
2018-07-05T01:16:47.580Z,3.30
2018-07-05T01:19:27.263Z,3.17
2018-07-05T01:22:06.951Z,3.23
2018-07-05T01:24:46.853Z,3.23
2018-07-05T01:27:26.557Z,3.43
2018-07-05T01:30:06.461Z,3.23
2018-07-05T01:32:46.491Z,3.10
2018-07-05T01:35:26.455Z,3.43
2018-07-05T01:38:06.295Z,3.37
2018-07-05T01:40:45.987Z,3.53
2018-07-05T01:43:25.703Z,3.40
2018-07-05T01:46:05.421Z,3.57
2018-07-05T01:48:45.380Z,3.10
2018-07-05T01:51:24.972Z,3.03
2018-07-05T01:54:04.706Z,3.40
2018-07-05T01:56:44.622Z,3.63
2018-07-05T01:59:24.438Z,3.30
2018-07-05T02:02:04.159Z,3.03
2018-07-05T02:04:44.098Z,3.33
2018-07-05T02:07:17.711Z,3.30
2018-07-05T02:09:58.537Z,3.43
2018-07-05T02:12:38.283Z,3.70
2018-07-05T02:15:18.226Z,3.53
2018-07-05T02:17:58.051Z,3.33
2018-07-05T02:20:37.848Z,3.70
2018-07-05T02:23:17.647Z,3.77
2018-07-05T02:25:57.355Z,3.27
2018-07-05T02:28:37.088Z,3.57
2018-07-05T02:31:16.746Z,3.67
2018-07-05T02:33:59.346Z,3.70
2018-07-05T02:36:39.061Z,3.20
2018-07-05T02:39:24.003Z,3.73
2018-07-05T02:42:03.744Z,4.07
2018-07-05T02:44:43.984Z,3.53
2018-07-05T02:47:23.576Z,4.27
2018-07-05T02:50:03.334Z,4.37
2018-07-05T02:52:43.014Z,4.03
2018-07-05T02:55:22.750Z,4.70
2018-07-05T02:58:02.590Z,4.20
2018-07-05T03:00:45.234Z,4.17
2018-07-05T03:03:26.407Z,3.80
2018-07-05T03:06:06.186Z,3.93
2018-07-05T03:08:45.911Z,3.67
2018-07-05T03:11:25.985Z,4.10
2018-07-05T03:14:05.646Z,4.20
2018-07-05T03:16:45.314Z,4.50
2018-07-05T03:19:24.996Z,4.60
2018-07-05T03:22:04.803Z,3.83
2018-07-05T03:24:44.458Z,4.37
2018-07-05T03:27:24.142Z,3.93
2018-07-05T03:30:03.682Z,4.70
2018-07-05T03:32:43.442Z,3.87
2018-07-05T03:35:23.156Z,4.10
2018-07-05T03:38:02.758Z,4.20
2018-07-05T03:40:42.454Z,4.80
2018-07-05T03:43:22.110Z,4.37
2018-07-05T03:46:01.754Z,4.40
2018-07-05T03:48:41.393Z,4.43
2018-07-05T03:51:21.036Z,4.80
2018-07-05T03:54:00.753Z,4.37
2018-07-05T03:56:40.598Z,4.60
2018-07-05T03:59:20.290Z,4.67
2018-07-05T04:01:59.928Z,4.20
2018-07-05T04:04:39.682Z,4.83
2018-07-05T04:07:19.434Z,5.23
2018-07-05T04:09:59.177Z,4.47
2018-07-05T04:12:38.752Z,4.33
2018-07-05T04:15:18.397Z,4.93
2018-07-05T04:17:58.052Z,5.00
2018-07-05T04:20:37.614Z,4.20
2018-07-05T04:23:17.229Z,4.30
2018-07-05T04:25:57.002Z,4.77
2018-07-05T04:28:36.804Z,4.37
2018-07-05T04:31:16.888Z,4.10
2018-07-05T04:33:56.742Z,3.73
2018-07-05T04:36:36.562Z,4.10
2018-07-05T04:39:17.039Z,4.40
2018-07-05T04:41:56.818Z,4.30
2018-07-05T04:44:36.714Z,4.30
2018-07-05T04:47:16.352Z,4.23
2018-07-05T04:49:56.242Z,4.20
2018-07-05T04:52:36.151Z,4.13
2018-07-05T04:55:15.961Z,4.40
2018-07-05T04:57:55.743Z,4.50
2018-07-05T05:00:36.287Z,4.50
2018-07-05T05:03:16.052Z,4.27
2018-07-05T05:05:55.848Z,4.93
2018-07-05T05:08:35.527Z,4.30
2018-07-05T05:11:15.277Z,4.60
2018-07-05T05:13:55.191Z,5.00
2018-07-05T05:16:35.011Z,4.73
2018-07-05T05:19:14.688Z,4.30
2018-07-05T05:21:54.429Z,4.50
2018-07-05T05:24:34.207Z,4.53
2018-07-05T05:27:07.927Z,4.30
2018-07-05T05:29:47.558Z,4.00
2018-07-05T05:32:27.535Z,4.13
2018-07-05T05:35:07.232Z,4.73
2018-07-05T05:37:47.059Z,4.23
2018-07-05T05:40:26.724Z,4.00
2018-07-05T05:43:06.516Z,4.73
2018-07-05T05:45:46.335Z,4.50
2018-07-05T05:48:26.147Z,4.13
2018-07-05T05:51:05.905Z,4.50
2018-07-05T05:53:45.608Z,4.47
2018-07-05T05:56:25.359Z,4.70
2018-07-05T05:59:05.167Z,4.70
2018-07-05T06:01:44.907Z,4.47
2018-07-05T06:04:24.965Z,5.20
2018-07-05T06:07:04.684Z,4.97
2018-07-05T06:09:44.304Z,5.00
2018-07-05T06:12:24.167Z,4.57
2018-07-05T06:15:04.000Z,4.47
2018-07-05T06:17:43.838Z,4.50
2018-07-05T06:20:26.343Z,4.77
2018-07-05T06:23:06.090Z,4.60
2018-07-05T06:25:45.824Z,4.67
2018-07-05T06:28:25.645Z,4.33
2018-07-05T06:31:05.530Z,4.47
2018-07-05T06:33:45.936Z,4.67
2018-07-05T06:36:25.694Z,4.87
2018-07-05T06:39:07.020Z,4.90
2018-07-05T06:41:47.290Z,4.70
2018-07-05T06:44:26.884Z,4.23
2018-07-05T06:47:06.622Z,4.10
2018-07-05T06:49:46.457Z,4.47
2018-07-05T06:52:26.162Z,4.10
2018-07-05T06:55:06.191Z,4.20
2018-07-05T06:57:45.979Z,4.27
2018-07-05T07:00:26.394Z,3.80
2018-07-05T07:03:06.023Z,4.13
2018-07-05T07:05:45.592Z,4.43
2018-07-05T07:08:25.368Z,3.97
2018-07-05T07:11:05.060Z,4.23
2018-07-05T07:13:44.925Z,3.87
2018-07-05T07:16:25.615Z,4.17
2018-07-05T07:19:05.227Z,3.70
2018-07-05T07:21:45.051Z,3.60
2018-07-05T07:24:24.964Z,3.90
2018-07-05T07:27:04.677Z,3.83
2018-07-05T07:29:44.234Z,4.00
2018-07-05T07:32:23.814Z,4.27
2018-07-05T07:35:03.580Z,4.17
2018-07-05T07:37:43.154Z,3.93
2018-07-05T07:40:22.851Z,3.70
2018-07-05T07:42:50.169Z,4.00
2018-07-05T07:45:17.539Z,3.63
2018-07-05T07:47:44.882Z,3.63
2018-07-05T07:50:13.759Z,3.80
2018-07-05T07:52:41.125Z,3.05
2018-07-05T07:55:08.489Z,3.22
2018-07-05T07:57:35.940Z,3.37
2018-07-05T08:02:36.735Z,2.85
2018-07-05T08:05:04.127Z,3.20
2018-07-05T08:07:31.498Z,3.10
2018-07-05T08:09:58.899Z,2.92
2018-07-05T08:12:26.260Z,2.95
2018-07-05T08:14:54.222Z,2.90
2018-07-05T08:17:22.024Z,2.60
2018-07-05T08:19:49.451Z,2.70
2018-07-05T08:22:16.912Z,2.52
2018-07-05T08:24:44.272Z,2.90
2018-07-05T08:27:11.783Z,2.55
2018-07-05T08:29:39.111Z,2.72
2018-07-05T08:32:06.567Z,2.90
2018-07-05T08:34:33.906Z,3.12
2018-07-05T08:37:01.316Z,2.90
2018-07-05T08:39:28.712Z,2.27
2018-07-05T08:41:56.214Z,2.62
2018-07-05T08:44:23.553Z,2.83
2018-07-05T08:46:50.952Z,2.58
2018-07-05T08:49:18.356Z,2.22
2018-07-05T08:51:45.770Z,2.40
2018-07-05T08:54:13.400Z,2.08
2018-07-05T08:56:40.870Z,2.55
2018-07-05T08:59:08.290Z,2.42
2018-07-05T09:01:35.774Z,2.50
2018-07-05T09:04:03.228Z,2.40
2018-07-05T09:06:30.694Z,2.58
2018-07-05T09:08:58.132Z,2.40
2018-07-05T09:11:25.608Z,2.58
2018-07-05T09:13:53.044Z,2.72
2018-07-05T09:16:20.494Z,2.77
2018-07-05T09:18:47.933Z,2.47
2018-07-05T09:21:15.492Z,2.37
2018-07-05T09:23:42.975Z,3.00
2018-07-05T09:26:10.411Z,2.30
2018-07-05T09:28:37.891Z,2.35
2018-07-05T09:31:05.329Z,2.20
2018-07-05T09:33:32.751Z,2.50
2018-07-05T09:36:00.496Z,1.72
2018-07-05T09:38:28.070Z,1.90
2018-07-05T09:40:55.504Z,2.52
2018-07-05T09:43:22.975Z,2.20
2018-07-05T09:45:50.379Z,2.22
2018-07-05T09:48:17.939Z,2.20
2018-07-05T09:50:45.452Z,2.08
2018-07-05T09:53:12.930Z,2.35
2018-07-05T09:55:40.405Z,2.72
2018-07-05T09:58:07.903Z,2.77
2018-07-05T10:00:40.532Z,2.90
2018-07-05T10:03:08.056Z,2.58
2018-07-05T10:05:35.484Z,2.80
2018-07-05T10:08:02.899Z,2.42
2018-07-05T10:10:30.338Z,2.27
2018-07-05T10:12:57.889Z,2.62
2018-07-05T10:15:25.344Z,2.62
2018-07-05T10:17:52.792Z,3.00
2018-07-05T10:20:20.203Z,2.95
2018-07-05T10:22:47.576Z,2.47
2018-07-05T10:25:15.003Z,2.17
2018-07-05T10:27:42.400Z,2.47
2018-07-05T10:30:22.343Z,2.65
2018-07-05T10:33:02.373Z,2.50
2018-07-05T10:35:30.463Z,2.95
2018-07-05T10:37:57.875Z,2.80
2018-07-05T10:40:38.886Z,2.50
2018-07-05T10:43:18.715Z,2.40
2018-07-05T10:45:58.978Z,2.90
2018-07-05T10:48:38.939Z,2.77
2018-07-05T10:51:12.849Z,2.50
2018-07-05T10:53:52.503Z,2.95
2018-07-05T10:56:32.273Z,2.52
2018-07-05T10:59:12.336Z,2.75
2018-07-05T11:01:52.429Z,3.22
2018-07-05T11:04:32.200Z,2.77
2018-07-05T11:07:12.289Z,2.77
2018-07-05T11:09:51.925Z,2.98
2018-07-05T11:12:31.807Z,3.10
2018-07-05T11:15:11.644Z,2.98
2018-07-05T11:17:52.664Z,3.22
2018-07-05T11:20:32.391Z,3.20
2018-07-05T11:23:12.040Z,3.22
2018-07-05T11:25:51.615Z,3.10
2018-07-05T11:28:31.436Z,3.67
2018-07-05T11:31:11.278Z,3.20
2018-07-05T11:33:51.208Z,2.92
2018-07-05T11:36:31.191Z,2.90
2018-07-05T11:39:11.498Z,3.08
2018-07-05T11:41:51.200Z,2.98
2018-07-05T11:44:30.881Z,2.90
2018-07-05T11:47:10.740Z,3.25
2018-07-05T11:49:50.558Z,3.05
2018-07-05T11:52:30.836Z,2.85
2018-07-05T11:55:10.643Z,2.90
2018-07-05T11:57:50.315Z,2.87
2018-07-05T12:00:30.049Z,2.70
2018-07-05T12:03:09.838Z,3.20
2018-07-05T12:05:49.622Z,3.00
2018-07-05T12:08:29.159Z,3.00
2018-07-05T12:11:09.116Z,2.87
2018-07-05T12:13:48.873Z,2.80
2018-07-05T12:16:28.793Z,2.95
2018-07-05T12:19:02.458Z,3.10
2018-07-05T12:21:42.324Z,3.10
2018-07-05T12:24:22.165Z,2.80
2018-07-05T12:27:01.873Z,2.67
2018-07-05T12:29:41.496Z,3.20
2018-07-05T12:32:21.220Z,2.50
2018-07-05T12:35:03.923Z,2.77
2018-07-05T12:37:43.889Z,2.95
2018-07-05T12:40:23.757Z,2.62
2018-07-05T12:43:03.595Z,2.58
2018-07-05T12:45:43.554Z,2.55
2018-07-05T12:48:23.219Z,2.70
2018-07-05T12:51:02.987Z,2.77
2018-07-05T12:53:42.629Z,2.92
2018-07-05T12:56:22.399Z,2.85
2018-07-05T12:59:02.279Z,2.67
2018-07-05T13:01:42.065Z,2.60
2018-07-05T13:04:21.849Z,2.40
2018-07-05T13:07:01.601Z,2.60
2018-07-05T13:09:46.317Z,2.40
2018-07-05T13:12:26.173Z,2.30
2018-07-05T13:15:06.063Z,2.40
2018-07-05T13:17:45.896Z,2.42
2018-07-05T13:20:25.557Z,2.45
2018-07-05T13:23:05.225Z,2.98
2018-07-05T13:25:45.107Z,2.70
2018-07-05T13:28:24.836Z,2.75
2018-07-05T13:31:04.659Z,3.02
2018-07-05T13:33:44.478Z,3.08
2018-07-05T13:36:18.205Z,3.30
2018-07-05T13:38:57.899Z,3.40
2018-07-05T13:41:37.506Z,3.52
2018-07-05T13:44:17.199Z,3.20
2018-07-05T13:46:57.579Z,3.22
2018-07-05T13:49:37.241Z,3.08
2018-07-05T13:52:17.005Z,3.22
2018-07-05T13:54:56.833Z,3.00
2018-07-05T13:57:37.010Z,2.80
2018-07-05T14:00:19.519Z,3.00
2018-07-05T14:02:59.411Z,3.10
2018-07-05T14:05:39.432Z,2.83
2018-07-05T14:08:19.077Z,2.98
2018-07-05T14:10:58.907Z,2.77
2018-07-05T14:13:38.547Z,2.62
2018-07-05T14:16:18.369Z,2.95
2018-07-05T14:18:52.379Z,3.35
2018-07-05T14:21:32.378Z,3.10
2018-07-05T14:24:12.091Z,3.60
2018-07-05T14:26:51.832Z,3.45
2018-07-05T14:29:31.753Z,3.47
2018-07-05T14:32:11.573Z,3.17
2018-07-05T14:34:51.471Z,3.30
2018-07-05T14:37:31.142Z,3.30
2018-07-05T14:40:12.540Z,3.67
2018-07-05T14:42:52.294Z,3.45
2018-07-05T14:45:32.108Z,3.65
2018-07-05T14:48:11.843Z,4.35
2018-07-05T14:50:51.665Z,4.22
2018-07-05T14:53:31.383Z,3.65
2018-07-05T14:56:11.104Z,3.33
2018-07-05T14:58:50.907Z,3.83
2018-07-05T15:01:30.537Z,3.45
2018-07-05T15:04:10.419Z,3.65
2018-07-05T15:06:50.272Z,3.50
2018-07-05T15:09:30.514Z,3.80
2018-07-05T15:12:10.353Z,3.60
2018-07-05T15:14:50.084Z,3.80
2018-07-05T15:17:29.814Z,3.70
2018-07-05T15:20:09.602Z,3.50
2018-07-05T15:22:49.703Z,3.75
2018-07-05T15:25:29.525Z,3.60
2018-07-05T15:28:09.386Z,3.77
2018-07-05T15:30:49.462Z,3.70
2018-07-05T15:33:29.398Z,3.12
2018-07-05T15:36:09.274Z,4.08
2018-07-05T15:38:49.277Z,3.62
2018-07-05T15:41:29.033Z,3.40
2018-07-05T15:44:08.693Z,3.40
2018-07-05T15:46:48.604Z,3.65
2018-07-05T15:49:28.402Z,3.60
2018-07-05T15:52:08.252Z,3.37
2018-07-05T15:54:48.010Z,3.37
2018-07-05T15:57:27.813Z,3.52
2018-07-05T16:00:07.716Z,3.52
2018-07-05T16:02:47.415Z,3.47
2018-07-05T16:05:27.158Z,3.62
2018-07-05T16:08:06.932Z,3.55
2018-07-05T16:10:46.764Z,3.55
2018-07-05T16:13:26.552Z,3.35
2018-07-05T16:16:06.328Z,3.12
2018-07-05T16:18:46.100Z,3.08
2018-07-05T16:21:25.934Z,3.30
2018-07-05T16:24:05.648Z,3.20
2018-07-05T16:26:45.412Z,2.90
2018-07-05T16:29:25.227Z,3.12
2018-07-05T16:32:04.954Z,2.75
2018-07-05T16:34:44.668Z,2.70
2018-07-05T16:37:24.401Z,2.85
2018-07-05T16:40:04.639Z,2.40
2018-07-05T16:42:45.371Z,2.45
2018-07-05T16:45:25.137Z,2.67
2018-07-05T16:48:04.760Z,2.55
2018-07-05T16:50:45.693Z,2.72
2018-07-05T16:53:25.341Z,2.60
2018-07-05T16:56:04.975Z,3.12
2018-07-05T16:58:45.205Z,3.65
2018-07-05T17:01:25.051Z,3.50
2018-07-05T17:04:04.899Z,3.85
2018-07-05T17:06:44.930Z,4.08
2018-07-05T17:09:18.611Z,4.37
2018-07-05T17:11:58.903Z,4.20
2018-07-05T17:14:32.552Z,4.17
2018-07-05T17:17:12.373Z,4.05
2018-07-05T17:19:52.387Z,4.30
2018-07-05T17:22:32.223Z,3.72
2018-07-05T17:25:11.962Z,4.40
2018-07-05T17:27:51.643Z,4.00
2018-07-05T17:30:31.624Z,3.83
2018-07-05T17:33:11.476Z,4.28
2018-07-05T17:35:51.229Z,4.37
2018-07-05T17:38:32.315Z,4.05
2018-07-05T17:43:57.605Z,4.10
2018-07-05T17:46:37.708Z,4.12
2018-07-05T17:49:17.375Z,4.95
2018-07-05T17:51:57.055Z,4.67
2018-07-05T17:54:36.935Z,4.30
2018-07-05T17:57:16.718Z,5.00
2018-07-05T17:59:50.513Z,4.95
2018-07-05T18:02:30.219Z,4.47
2018-07-05T18:05:10.047Z,4.90
2018-07-05T18:07:49.816Z,4.35
2018-07-05T18:10:29.606Z,4.78
2018-07-05T18:13:09.292Z,4.08
2018-07-05T18:15:49.044Z,3.20
2018-07-05T18:18:28.649Z,2.93
2018-07-05T18:21:08.476Z,3.43
2018-07-05T18:23:48.272Z,3.27
2018-07-05T18:26:28.014Z,3.83
2018-07-05T18:29:17.938Z,3.50
2018-07-05T18:31:58.008Z,3.27
2018-07-05T18:34:37.950Z,3.70
2018-07-05T18:37:17.715Z,3.53
2018-07-05T18:39:57.355Z,3.67
2018-07-05T18:42:37.111Z,3.90
2018-07-05T18:45:16.890Z,3.70
2018-07-05T18:47:57.866Z,3.37
2018-07-05T18:50:38.009Z,3.20
2018-07-05T18:53:17.758Z,3.60
2018-07-05T18:55:57.552Z,3.43
2018-07-05T18:58:37.386Z,4.23
2018-07-05T19:01:17.611Z,3.40
2018-07-05T19:03:57.422Z,3.67
2018-07-05T19:06:37.251Z,4.20
2018-07-05T19:09:18.833Z,3.47
2018-07-05T19:11:58.466Z,4.17
2018-07-05T19:14:39.304Z,3.57
2018-07-05T19:17:19.051Z,4.37
2018-07-05T19:19:58.970Z,3.57
2018-07-05T19:22:38.958Z,3.73
2018-07-05T19:25:18.730Z,4.17
2018-07-05T19:27:58.466Z,3.40
2018-07-05T19:30:38.056Z,3.57
2018-07-05T19:33:17.929Z,4.33
2018-07-05T19:35:57.586Z,4.00
2018-07-05T19:38:37.783Z,3.93
2018-07-05T19:41:17.812Z,4.27
2018-07-05T19:43:57.568Z,4.17
2018-07-05T19:46:37.831Z,4.20
2018-07-05T19:49:17.636Z,4.13
2018-07-05T19:51:57.505Z,4.47
2018-07-05T19:54:37.288Z,8.27
2018-07-05T19:57:16.871Z,6.40
2018-07-05T19:59:56.787Z,5.83
2018-07-05T20:02:36.401Z,5.20
2018-07-05T20:05:16.112Z,5.10
2018-07-05T20:07:55.935Z,4.70
2018-07-05T20:10:35.617Z,4.10
2018-07-05T20:13:15.429Z,4.50
2018-07-05T20:15:49.099Z,4.33
2018-07-05T20:18:28.679Z,3.60
2018-07-05T20:21:09.474Z,4.43
2018-07-05T20:23:49.054Z,3.87
2018-07-05T20:26:28.804Z,3.80
2018-07-05T20:29:02.581Z,3.33
2018-07-05T20:31:44.883Z,2.90
2018-07-05T20:34:24.639Z,3.33
2018-07-05T20:37:04.274Z,3.03
2018-07-05T20:39:44.343Z,2.87
2018-07-05T20:42:24.147Z,3.03
2018-07-05T20:45:03.878Z,3.57
2018-07-05T20:47:43.890Z,3.27
2018-07-05T20:50:23.659Z,3.40
2018-07-05T20:52:57.394Z,3.20
2018-07-05T20:55:37.758Z,3.47
2018-07-05T20:58:17.434Z,3.87
2018-07-05T21:00:57.065Z,3.40
2018-07-05T21:03:36.958Z,3.20
2018-07-05T21:06:16.757Z,3.60
2018-07-05T21:08:57.069Z,3.50
2018-07-05T21:11:36.633Z,3.30
2018-07-05T21:14:16.268Z,3.53
2018-07-05T21:16:55.920Z,3.87
2018-07-05T21:19:35.721Z,3.90
2018-07-05T21:22:15.466Z,3.47
2018-07-05T21:24:55.167Z,3.80
2018-07-05T21:27:34.944Z,3.50
2018-07-05T21:30:14.782Z,3.80
2018-07-05T21:32:54.386Z,3.70
2018-07-05T21:35:34.203Z,3.70
2018-07-05T21:38:13.898Z,3.63
2018-07-05T21:40:53.701Z,3.63
2018-07-05T21:43:33.302Z,3.40
2018-07-05T21:46:12.975Z,3.70
2018-07-05T21:48:52.753Z,3.40
2018-07-05T21:51:32.427Z,3.80
2018-07-05T21:54:12.104Z,3.63
2018-07-05T21:56:51.772Z,3.50
2018-07-05T21:59:31.553Z,3.60
2018-07-05T22:02:11.226Z,3.83
2018-07-05T22:04:50.826Z,3.40
2018-07-05T22:07:30.631Z,3.50
2018-07-05T22:10:04.676Z,3.30
2018-07-05T22:12:44.400Z,2.97
2018-07-05T22:15:24.371Z,2.93
2018-07-05T22:18:09.544Z,2.80
2018-07-05T22:20:54.698Z,2.90
2018-07-05T22:23:39.833Z,2.67
2018-07-05T22:26:24.690Z,2.40
2018-07-05T22:29:09.730Z,2.70
2018-07-05T22:31:54.804Z,3.13
2018-07-05T22:34:34.564Z,2.87
2018-07-05T22:37:14.366Z,2.80
2018-07-05T22:39:54.597Z,2.97
2018-07-05T22:42:34.294Z,2.43
2018-07-05T22:45:14.230Z,2.90
2018-07-05T22:47:53.978Z,2.97
2018-07-05T22:50:33.972Z,3.17
2018-07-05T22:53:13.865Z,2.60
2018-07-05T22:55:54.200Z,2.90
2018-07-05T22:58:27.938Z,2.97
2018-07-05T23:01:09.364Z,2.47
2018-07-05T23:03:49.178Z,2.57
2018-07-05T23:06:28.791Z,3.00
2018-07-05T23:09:11.275Z,2.40
2018-07-05T23:11:51.412Z,2.67
2018-07-05T23:14:31.138Z,2.40
2018-07-05T23:17:10.798Z,2.20
2018-07-05T23:19:50.497Z,2.30
2018-07-05T23:22:30.411Z,2.73
2018-07-05T23:25:10.199Z,2.47
2018-07-05T23:27:44.143Z,2.40
2018-07-05T23:30:24.727Z,2.83
2018-07-05T23:33:04.398Z,2.50
2018-07-05T23:35:44.133Z,2.40
2018-07-05T23:38:23.782Z,2.70
2018-07-05T23:41:03.607Z,2.70
2018-07-05T23:43:43.400Z,2.53
2018-07-05T23:46:23.190Z,2.60
2018-07-05T23:49:02.854Z,2.63
2018-07-05T23:51:42.752Z,2.90
2018-07-05T23:54:22.311Z,2.90
2018-07-05T23:57:01.896Z,2.50
2018-07-05T23:59:41.714Z,2.60
